Airports

 

 

Airport Name Latest METAR Visual Conditions
Atlanta International (ATL) KATL 140452Z 26006KT 10SM BKN150 BKN200 16/14 A3008 RMK AO2 SLP181 T01560139 401890156 $ VFR
Asheville Regional (AVL) KAVL 140454Z AUTO 00000KT 10SM CLR 12/09 A3007 RMK AO2 SLP170 T01220094 402060122 VFR
Birmingham International (BHM) KBHM 140453Z 31003KT 10SM SCT150 12/11 A3011 RMK AO2 SLP193 T01220111 $ VFR
Chattanooga (CHA) KCHA 140453Z AUTO 00000KT 10SM CLR 14/10 A3007 RMK AO2 SLP179 T01390100 402390094 $ VFR
Charlotte International (CLT) KCLT 140452Z 00000KT 10SM OVC210 18/16 A3002 RMK AO2 SLP161 T01780161 402110167 VFR
Greensboro Piedmont-Triad (GSO) KGSO 140454Z 21003KT 3/4SM R05R/P6000FT BR VV002 16/16 A3000 RMK AO2 SFC VIS 1 SLP153 T01560156 401830144 LIFR
Greenville-Spartanburg International (GSP) KGSP 140453Z AUTO 21006KT 10SM CLR 15/13 A3003 RMK AO2 SLP163 T01500133 402000150 VFR
Middle Georgia Regional Airport (MCN) KMCN 140453Z AUTO 16005KT 4SM RA BR OVC080 21/19 A3007 RMK AO2 RAB27 SLP176 P0004 T02060194 403110161 MVFR
Tri-Cities Airport (TRI) KTRI 140453Z 00000KT 10SM CLR 06/03 A3007 RMK AO2 SLP167 T00610028 402390056 $ VFR
Knoxville Regional (TYS) KTYS 140453Z 22004KT 10SM CLR 13/08 A3006 RMK AO2 SLP174 T01280083 402330072 VFR